createdAt,value
2024-05-09T00:01:56.755Z,14.19
2024-05-09T00:04:26.704Z,14.14
2024-05-09T00:06:56.746Z,14.10
2024-05-09T00:09:26.853Z,14.05
2024-05-09T00:11:56.961Z,14.02
2024-05-09T00:14:32.327Z,13.99
2024-05-09T00:17:02.527Z,13.96
2024-05-09T00:19:32.427Z,13.92
2024-05-09T00:22:05.054Z,13.90
2024-05-09T00:24:35.418Z,13.84
2024-05-09T00:27:05.945Z,13.82
2024-05-09T00:29:40.909Z,13.81
2024-05-09T00:32:11.453Z,13.81
2024-05-09T00:34:41.434Z,13.84
2024-05-09T00:37:11.335Z,13.89
2024-05-09T00:39:41.237Z,13.91
2024-05-09T00:42:11.397Z,13.92
2024-05-09T00:44:43.748Z,13.93
2024-05-09T00:47:13.911Z,13.92
2024-05-09T00:49:44.154Z,13.92
2024-05-09T00:52:14.157Z,13.93
2024-05-09T00:54:44.274Z,13.91
2024-05-09T00:57:14.437Z,13.89
2024-05-09T00:59:47.267Z,13.89
2024-05-09T01:02:18.357Z,13.90
2024-05-09T01:04:49.206Z,13.89
2024-05-09T01:07:22.521Z,13.88
2024-05-09T01:09:52.601Z,13.87
2024-05-09T01:12:22.692Z,13.84
2024-05-09T01:14:55.381Z,13.86
2024-05-09T01:17:25.447Z,13.86
2024-05-09T01:19:55.395Z,13.89
2024-05-09T01:22:27.436Z,13.89
2024-05-09T01:25:04.122Z,13.91
2024-05-09T01:27:34.913Z,13.91
2024-05-09T01:30:09.151Z,13.91
2024-05-09T01:32:39.776Z,13.90
2024-05-09T01:35:10.244Z,13.91
2024-05-09T01:37:40.527Z,13.91
2024-05-09T01:40:18.553Z,13.92
2024-05-09T01:42:52.637Z,13.91
2024-05-09T01:45:22.217Z,13.93
2024-05-09T01:47:52.352Z,13.93
2024-05-09T01:50:35.742Z,13.94
2024-05-09T01:53:09.656Z,13.93
2024-05-09T01:55:42.581Z,13.94
2024-05-09T01:58:15.717Z,13.92
2024-05-09T02:00:45.880Z,13.90
2024-05-09T02:03:17.769Z,13.92
2024-05-09T02:05:50.136Z,13.91
2024-05-09T02:08:22.311Z,13.88
2024-05-09T02:10:55.128Z,13.87
2024-05-09T02:13:26.582Z,13.88
2024-05-09T02:15:56.433Z,13.85
2024-05-09T02:18:27.052Z,13.83
2024-05-09T02:20:57.090Z,13.79
2024-05-09T02:23:27.346Z,13.77
2024-05-09T02:26:00.871Z,13.76
2024-05-09T02:28:30.784Z,13.74
2024-05-09T02:31:00.954Z,13.69
2024-05-09T02:33:32.175Z,13.65
2024-05-09T02:36:02.302Z,13.65
2024-05-09T02:38:29.674Z,13.68
2024-05-09T02:41:07.959Z,13.68
2024-05-09T02:43:35.224Z,13.68
2024-05-09T02:46:05.523Z,13.68
2024-05-09T02:48:32.887Z,13.67
2024-05-09T02:51:04.754Z,13.68
2024-05-09T02:53:32.189Z,13.65
2024-05-09T02:56:05.090Z,13.62
2024-05-09T02:58:32.351Z,13.57
2024-05-09T03:01:04.289Z,13.46
2024-05-09T03:03:31.828Z,13.38
2024-05-09T03:06:02.160Z,13.33
2024-05-09T03:08:29.187Z,13.29
2024-05-09T03:10:59.174Z,13.24
2024-05-09T03:13:29.228Z,13.18
2024-05-09T03:15:59.136Z,13.15
2024-05-09T03:18:28.988Z,13.11
2024-05-09T03:20:59.327Z,13.08
2024-05-09T03:23:26.846Z,13.03
2024-05-09T03:25:57.906Z,13.01
2024-05-09T03:28:25.531Z,12.96
2024-05-09T03:30:58.699Z,12.95
2024-05-09T03:33:27.138Z,12.90
2024-05-09T03:35:57.127Z,12.88
2024-05-09T03:38:27.028Z,12.84
2024-05-09T03:40:59.853Z,12.81
2024-05-09T03:43:31.441Z,12.78
2024-05-09T03:46:04.320Z,12.76
2024-05-09T03:48:37.378Z,12.74
2024-05-09T03:51:07.984Z,12.73
2024-05-09T03:53:35.362Z,12.70
2024-05-09T03:56:06.920Z,12.69
2024-05-09T03:58:34.459Z,12.66
2024-05-09T04:01:09.491Z,12.63
2024-05-09T04:03:37.141Z,12.63
2024-05-09T04:06:08.464Z,12.61
2024-05-09T04:08:35.908Z,12.58
2024-05-09T04:11:08.653Z,12.56
2024-05-09T04:13:35.961Z,12.56
2024-05-09T04:16:12.185Z,12.53
2024-05-09T04:18:40.328Z,12.53
2024-05-09T04:21:10.405Z,12.52
2024-05-09T04:23:39.279Z,12.51
2024-05-09T04:26:10.004Z,12.52
2024-05-09T04:28:37.270Z,12.50
2024-05-09T04:31:12.910Z,12.48
2024-05-09T04:33:40.400Z,12.49
2024-05-09T04:36:10.977Z,12.49
2024-05-09T04:38:38.289Z,12.52
2024-05-09T04:41:08.299Z,12.50
2024-05-09T04:43:38.181Z,12.50
2024-05-09T04:46:13.291Z,12.49
2024-05-09T04:48:40.574Z,12.50
2024-05-09T04:51:10.612Z,12.48
2024-05-09T04:53:38.696Z,12.50
2024-05-09T04:56:09.991Z,12.51
2024-05-09T04:58:37.720Z,12.54
2024-05-09T05:01:10.625Z,12.58
2024-05-09T05:03:38.346Z,12.60
2024-05-09T05:06:08.720Z,12.63
2024-05-09T05:08:36.374Z,12.65
2024-05-09T05:11:08.091Z,12.68
2024-05-09T05:13:37.883Z,12.72
2024-05-09T05:16:12.251Z,12.75
2024-05-09T05:18:39.985Z,12.76
2024-05-09T05:21:11.265Z,12.80
2024-05-09T05:23:43.841Z,12.84
2024-05-09T05:26:11.370Z,12.85
2024-05-09T05:28:41.800Z,12.90
2024-05-09T05:31:15.334Z,12.91
2024-05-09T05:33:45.568Z,12.97
2024-05-09T05:36:13.482Z,13.02
2024-05-09T05:38:45.521Z,13.08
2024-05-09T05:41:14.194Z,13.16
2024-05-09T05:43:51.056Z,13.24
2024-05-09T05:46:24.204Z,13.28
2024-05-09T05:48:54.550Z,13.37
2024-05-09T05:51:22.262Z,13.44
2024-05-09T05:53:52.505Z,13.54
2024-05-09T05:56:19.987Z,13.63
2024-05-09T05:58:50.363Z,13.73
2024-05-09T06:01:18.086Z,13.81
2024-05-09T06:03:51.125Z,13.89
2024-05-09T06:06:20.917Z,13.93
2024-05-09T06:08:51.034Z,13.99
2024-05-09T06:11:19.107Z,14.08
2024-05-09T06:13:49.303Z,14.13
2024-05-09T06:16:19.040Z,14.25
2024-05-09T06:18:51.746Z,14.28
2024-05-09T06:21:22.165Z,14.31
2024-05-09T06:23:50.171Z,14.35
2024-05-09T06:26:20.601Z,14.40
2024-05-09T06:28:48.073Z,14.48
2024-05-09T06:31:18.012Z,14.54
2024-05-09T06:33:45.510Z,14.66
2024-05-09T06:36:18.120Z,14.75
2024-05-09T06:38:45.615Z,14.81
2024-05-09T06:41:18.677Z,14.93
2024-05-09T06:43:46.098Z,14.94
2024-05-09T06:46:21.239Z,14.93
2024-05-09T06:48:49.302Z,14.97
2024-05-09T06:51:23.244Z,15.08
2024-05-09T06:53:50.856Z,15.22
2024-05-09T06:56:21.696Z,15.24
2024-05-09T06:58:49.102Z,15.36
2024-05-09T07:01:19.326Z,15.49
2024-05-09T07:03:46.529Z,15.55
2024-05-09T07:06:16.699Z,15.54
2024-05-09T07:08:48.023Z,15.62
2024-05-09T07:11:24.700Z,15.72
2024-05-09T07:13:52.399Z,15.79
2024-05-09T07:16:22.348Z,15.84
2024-05-09T07:18:57.155Z,15.94
2024-05-09T07:21:28.296Z,16.05
2024-05-09T07:23:58.458Z,16.10
2024-05-09T07:26:28.441Z,16.18
2024-05-09T07:28:55.749Z,16.31
2024-05-09T07:31:28.296Z,16.44
2024-05-09T07:33:56.044Z,16.60
2024-05-09T07:36:25.969Z,16.69
2024-05-09T07:38:53.253Z,16.76
2024-05-09T07:41:25.983Z,16.86
2024-05-09T07:43:53.319Z,16.96
2024-05-09T07:47:14.655Z,17.10
2024-05-09T07:50:54.581Z,17.21
2024-05-09T07:53:25.128Z,17.33
2024-05-09T07:54:55.213Z,17.19
2024-05-09T07:57:32.586Z,16.96
2024-05-09T08:00:11.748Z,16.86
2024-05-09T08:02:44.170Z,16.78
2024-05-09T08:05:11.562Z,16.86
2024-05-09T08:07:42.438Z,16.92
2024-05-09T08:10:12.757Z,16.91
2024-05-09T08:12:45.750Z,17.00
2024-05-09T08:15:13.148Z,17.22
2024-05-09T08:17:43.379Z,17.45
2024-05-09T08:22:41.248Z,18.95
2024-05-09T08:25:10.702Z,20.45
2024-05-09T08:27:45.664Z,21.76
2024-05-09T08:30:21.586Z,22.92
2024-05-09T08:32:55.400Z,24.31
2024-05-09T08:35:22.698Z,25.17
2024-05-09T08:37:53.720Z,25.83
2024-05-09T08:40:30.529Z,26.51
2024-05-09T08:43:12.161Z,26.52
2024-05-09T08:45:43.791Z,26.76
2024-05-09T08:48:16.680Z,26.88
2024-05-09T08:50:45.594Z,27.06
2024-05-09T08:53:16.127Z,27.27
2024-05-09T08:55:44.807Z,27.11
2024-05-09T08:58:19.906Z,26.87
2024-05-09T09:00:49.786Z,26.48
2024-05-09T09:03:21.651Z,26.46
2024-05-09T09:05:58.574Z,26.38
2024-05-09T09:08:29.110Z,26.15
2024-05-09T09:11:01.185Z,25.56
2024-05-09T09:13:33.973Z,24.76
2024-05-09T09:16:03.006Z,24.23
2024-05-09T09:18:34.673Z,24.01
2024-05-09T09:21:03.437Z,23.59
2024-05-09T09:23:33.456Z,23.13
2024-05-09T09:26:02.045Z,23.06
2024-05-09T09:28:40.907Z,22.91
2024-05-09T09:31:08.531Z,22.62
2024-05-09T09:33:38.699Z,22.52
2024-05-09T09:36:07.604Z,22.25
2024-05-09T09:38:40.336Z,22.09
2024-05-09T09:41:09.142Z,22.17
2024-05-09T09:43:42.674Z,22.36
2024-05-09T09:46:14.878Z,22.58
2024-05-09T09:48:46.416Z,22.73
2024-05-09T09:51:16.202Z,22.73
2024-05-09T09:53:47.404Z,22.76
2024-05-09T09:56:18.229Z,22.78
2024-05-09T09:58:51.959Z,22.34
2024-05-09T10:01:19.565Z,22.08
2024-05-09T10:03:49.670Z,21.87
2024-05-09T10:06:18.057Z,21.71
2024-05-09T10:08:50.682Z,21.58
2024-05-09T10:11:22.599Z,21.33
2024-05-09T10:13:56.860Z,21.41
2024-05-09T10:16:24.788Z,21.37
2024-05-09T10:18:55.128Z,21.40
2024-05-09T10:21:22.663Z,21.54
2024-05-09T10:24:02.781Z,21.49
2024-05-09T10:26:33.470Z,21.38
2024-05-09T10:29:14.178Z,21.27
2024-05-09T10:31:42.331Z,21.19
2024-05-09T10:34:20.079Z,21.12
2024-05-09T10:36:52.962Z,21.31
2024-05-09T10:39:24.248Z,21.41
2024-05-09T10:41:51.473Z,21.53
2024-05-09T10:44:24.772Z,21.26
2024-05-09T10:46:54.958Z,21.05
2024-05-09T10:49:25.669Z,21.19
2024-05-09T10:51:54.198Z,21.23
2024-05-09T10:54:24.458Z,21.21
2024-05-09T10:56:56.991Z,21.27
2024-05-09T10:59:38.156Z,21.35
2024-05-09T11:02:06.944Z,21.26
2024-05-09T11:04:38.578Z,21.15
2024-05-09T11:07:09.154Z,21.32
2024-05-09T11:09:41.805Z,21.62
2024-05-09T11:12:09.787Z,21.74
2024-05-09T11:14:42.501Z,21.61
2024-05-09T11:17:09.865Z,21.62
2024-05-09T11:19:39.132Z,21.54
2024-05-09T11:22:10.418Z,21.25
2024-05-09T11:24:38.393Z,21.30
2024-05-09T11:27:09.157Z,21.16
2024-05-09T11:29:43.647Z,21.23
2024-05-09T11:32:16.648Z,21.18
2024-05-09T11:34:44.412Z,21.28
2024-05-09T11:37:15.992Z,21.35
2024-05-09T11:39:43.367Z,21.44
2024-05-09T11:42:14.395Z,21.46
2024-05-09T11:44:46.616Z,21.52
2024-05-09T11:47:17.048Z,21.39
2024-05-09T11:49:44.303Z,21.41
2024-05-09T11:52:14.354Z,21.38
2024-05-09T11:54:43.832Z,21.32
2024-05-09T11:57:13.841Z,21.64
2024-05-09T11:59:46.215Z,21.76
2024-05-09T12:02:16.436Z,21.78
2024-05-09T12:04:44.502Z,21.67
2024-05-09T12:07:14.649Z,21.67
2024-05-09T12:09:41.684Z,21.52
2024-05-09T12:12:11.583Z,21.17
2024-05-09T12:14:38.934Z,21.00
2024-05-09T12:17:11.677Z,20.99
2024-05-09T12:19:39.131Z,21.03
2024-05-09T12:22:09.289Z,20.88
2024-05-09T12:24:36.876Z,21.23
2024-05-09T12:27:07.246Z,21.50
2024-05-09T12:29:37.569Z,21.65
2024-05-09T12:32:12.267Z,21.63
2024-05-09T12:34:39.827Z,21.67
2024-05-09T12:37:09.947Z,21.83
2024-05-09T12:39:37.546Z,21.99
2024-05-09T12:42:08.292Z,22.19
2024-05-09T12:44:36.471Z,21.92
2024-05-09T12:47:06.871Z,21.69
2024-05-09T12:49:37.039Z,22.21
2024-05-09T12:52:09.065Z,22.44
2024-05-09T12:54:36.460Z,22.39
2024-05-09T12:57:06.799Z,21.87
2024-05-09T12:59:34.262Z,21.47
2024-05-09T13:02:04.611Z,21.20
2024-05-09T13:04:32.253Z,21.03
2024-05-09T13:07:07.858Z,20.92
2024-05-09T13:09:35.741Z,21.05
2024-05-09T13:12:05.683Z,21.63
2024-05-09T13:14:33.208Z,21.73
2024-05-09T13:17:03.191Z,21.79
2024-05-09T13:19:30.221Z,22.01
2024-05-09T13:22:00.578Z,22.11
2024-05-09T13:24:50.848Z,22.03
2024-05-09T13:27:20.813Z,22.39
2024-05-09T13:29:49.602Z,22.80
2024-05-09T13:32:19.788Z,23.00
2024-05-09T13:34:47.046Z,23.13
2024-05-09T13:37:17.355Z,23.58
2024-05-09T13:39:44.786Z,24.21
2024-05-09T13:42:17.528Z,24.44
2024-05-09T13:44:44.775Z,24.83
2024-05-09T13:47:17.123Z,24.80
2024-05-09T13:49:44.796Z,24.59
2024-05-09T13:52:14.921Z,24.37
2024-05-09T13:54:42.364Z,24.18
2024-05-09T13:57:12.327Z,24.53
2024-05-09T13:59:42.432Z,24.83
2024-05-09T14:02:12.732Z,24.89
2024-05-09T14:04:40.307Z,24.97
2024-05-09T14:07:10.938Z,24.86
2024-05-09T14:09:38.520Z,24.47
2024-05-09T14:12:11.357Z,24.57
2024-05-09T14:14:42.594Z,24.42
2024-05-09T14:17:13.878Z,23.95
2024-05-09T14:19:41.306Z,23.84
2024-05-09T14:22:14.120Z,23.71
2024-05-09T14:24:41.572Z,23.86
2024-05-09T14:27:11.914Z,24.21
2024-05-09T14:29:41.935Z,24.27
2024-05-09T14:32:11.806Z,24.31
2024-05-09T14:34:39.189Z,24.20
2024-05-09T14:37:09.380Z,24.24
2024-05-09T14:39:36.723Z,24.27
2024-05-09T14:42:07.110Z,24.13
2024-05-09T14:44:34.365Z,24.24
2024-05-09T14:47:07.482Z,24.48
2024-05-09T14:49:34.823Z,24.67
2024-05-09T14:52:04.864Z,24.46
2024-05-09T14:54:32.171Z,24.38
2024-05-09T14:57:02.089Z,24.40
2024-05-09T14:59:32.133Z,24.26
2024-05-09T15:02:02.107Z,24.40
2024-05-09T15:04:36.727Z,24.21
2024-05-09T15:07:08.344Z,24.28
2024-05-09T15:09:38.828Z,24.11
2024-05-09T15:12:09.542Z,23.83
2024-05-09T15:14:37.857Z,23.43
2024-05-09T15:17:08.038Z,23.30
2024-05-09T15:19:39.906Z,23.58
2024-05-09T15:22:13.211Z,23.76
2024-05-09T15:24:43.171Z,23.63
2024-05-09T15:27:13.843Z,23.54
2024-05-09T15:29:42.372Z,23.71
2024-05-09T15:32:12.455Z,23.76
2024-05-09T15:34:46.250Z,23.46
2024-05-09T15:37:18.478Z,23.37
2024-05-09T15:39:45.908Z,23.41
2024-05-09T15:42:16.102Z,23.23
2024-05-09T15:44:45.210Z,23.43
2024-05-09T15:47:15.815Z,23.63
2024-05-09T15:49:47.987Z,23.46
2024-05-09T15:52:19.967Z,23.35
2024-05-09T15:54:47.297Z,23.54
2024-05-09T15:57:19.945Z,23.67
2024-05-09T15:59:48.567Z,23.21
2024-05-09T16:02:21.207Z,22.96
2024-05-09T16:04:51.523Z,22.95
2024-05-09T16:07:22.424Z,23.13
2024-05-09T16:09:49.694Z,22.84
2024-05-09T16:12:19.962Z,22.51
2024-05-09T16:14:47.571Z,22.19
2024-05-09T16:17:17.819Z,22.07
2024-05-09T16:19:46.264Z,21.82
2024-05-09T16:22:19.751Z,21.61
2024-05-09T16:24:47.207Z,21.56
2024-05-09T16:27:17.371Z,21.31
2024-05-09T16:29:44.647Z,21.16
2024-05-09T16:32:18.220Z,21.03
2024-05-09T16:34:46.073Z,20.88
2024-05-09T16:37:18.940Z,20.69
2024-05-09T16:39:46.598Z,20.45
2024-05-09T16:42:16.577Z,20.27
2024-05-09T16:44:43.792Z,20.26
2024-05-09T16:47:14.159Z,20.17
2024-05-09T16:49:41.473Z,19.98
2024-05-09T16:52:11.333Z,19.76
2024-05-09T16:54:41.574Z,19.74
2024-05-09T16:57:11.641Z,19.80
2024-05-09T16:59:39.528Z,19.93
2024-05-09T17:02:09.993Z,20.02
2024-05-09T17:04:38.763Z,20.30
2024-05-09T17:07:08.867Z,20.19
2024-05-09T17:09:36.011Z,20.14
2024-05-09T17:12:09.923Z,20.08
2024-05-09T17:14:42.672Z,20.02
2024-05-09T17:17:13.146Z,19.95
2024-05-09T17:19:42.495Z,19.97
2024-05-09T17:22:12.784Z,19.95
2024-05-09T17:24:44.113Z,19.86
2024-05-09T17:27:17.017Z,19.74
2024-05-09T17:29:55.865Z,19.60
2024-05-09T17:32:26.098Z,19.55
2024-05-09T17:34:53.356Z,19.42
2024-05-09T17:37:24.747Z,19.39
2024-05-09T17:39:52.326Z,19.26
2024-05-09T17:42:27.058Z,19.18
2024-05-09T17:44:54.322Z,19.20
2024-05-09T17:47:24.348Z,19.27
2024-05-09T17:49:51.593Z,19.35
2024-05-09T17:52:21.834Z,19.35
2024-05-09T17:54:49.195Z,19.12
2024-05-09T17:57:19.129Z,18.95
2024-05-09T17:59:50.478Z,18.72
2024-05-09T18:02:21.542Z,18.64
2024-05-09T18:04:49.208Z,18.57
2024-05-09T18:07:19.240Z,18.53
2024-05-09T18:09:46.633Z,18.54
2024-05-09T18:12:16.783Z,18.52
2024-05-09T18:14:43.880Z,18.42
2024-05-09T18:17:20.253Z,18.29
2024-05-09T18:19:49.713Z,18.17
2024-05-09T18:22:19.983Z,18.03
2024-05-09T18:24:47.460Z,17.85
2024-05-09T18:27:19.767Z,17.76
2024-05-09T18:29:47.322Z,17.67
2024-05-09T18:32:20.024Z,17.65
2024-05-09T18:34:47.545Z,17.64
2024-05-09T18:37:17.697Z,17.55
2024-05-09T18:39:45.100Z,17.46
2024-05-09T18:42:15.053Z,17.38
2024-05-09T18:44:42.548Z,17.41
2024-05-09T18:47:12.976Z,17.43
2024-05-09T18:49:45.195Z,17.40
2024-05-09T18:52:15.801Z,17.33
2024-05-09T18:54:43.497Z,17.30
2024-05-09T18:57:13.428Z,17.26
2024-05-09T18:59:40.930Z,17.24
2024-05-09T19:02:11.077Z,17.19
2024-05-09T19:04:38.748Z,17.12
2024-05-09T19:07:13.841Z,17.03
2024-05-09T19:09:41.259Z,16.94
2024-05-09T19:12:16.878Z,16.84
2024-05-09T19:14:44.941Z,16.74
2024-05-09T19:17:16.561Z,16.70
2024-05-09T19:19:44.130Z,16.62
2024-05-09T19:22:16.982Z,16.56
2024-05-09T19:24:45.564Z,16.54
2024-05-09T19:27:16.353Z,16.54
2024-05-09T19:29:44.008Z,16.53
2024-05-09T19:32:14.109Z,16.50
2024-05-09T19:34:42.620Z,16.52
2024-05-09T19:37:14.010Z,16.48
2024-05-09T19:39:45.468Z,16.29
2024-05-09T19:42:15.452Z,16.25
2024-05-09T19:44:42.787Z,16.22
2024-05-09T19:47:12.806Z,16.22
2024-05-09T19:49:40.279Z,16.19
2024-05-09T19:52:10.455Z,16.09
2024-05-09T19:54:37.614Z,16.10
2024-05-09T19:57:14.682Z,16.08
2024-05-09T19:59:41.984Z,16.04
2024-05-09T20:02:12.026Z,16.01
2024-05-09T20:04:39.450Z,16.00
2024-05-09T20:07:09.586Z,15.98
2024-05-09T20:09:36.689Z,15.97
2024-05-09T20:12:09.572Z,15.88
2024-05-09T20:14:37.006Z,15.84
2024-05-09T20:17:08.002Z,15.74
2024-05-09T20:19:39.428Z,15.68
2024-05-09T20:22:06.799Z,15.64
2024-05-09T20:24:36.812Z,15.68
2024-05-09T20:27:07.076Z,15.67
2024-05-09T20:29:36.797Z,15.65
2024-05-09T20:32:04.819Z,15.62
2024-05-09T20:34:34.741Z,15.56
2024-05-09T20:37:06.645Z,15.55
2024-05-09T20:39:38.999Z,15.53
2024-05-09T20:42:10.773Z,15.54
2024-05-09T20:44:47.848Z,15.56
2024-05-09T20:47:16.554Z,15.54
2024-05-09T20:49:47.020Z,15.54
2024-05-09T20:52:14.993Z,15.54
2024-05-09T20:54:45.022Z,15.52
2024-05-09T20:57:17.627Z,15.53
2024-05-09T20:59:44.949Z,15.51
2024-05-09T21:02:15.460Z,15.50
2024-05-09T21:04:43.135Z,15.46
2024-05-09T21:07:13.715Z,15.41
2024-05-09T21:09:41.417Z,15.35
2024-05-09T21:12:11.670Z,15.34
2024-05-09T21:14:42.230Z,15.32
2024-05-09T21:17:15.673Z,15.26
2024-05-09T21:19:43.228Z,15.22
2024-05-09T21:22:13.156Z,15.12
2024-05-09T21:24:41.496Z,15.05
2024-05-09T21:27:12.018Z,15.03
2024-05-09T21:29:42.343Z,15.04
2024-05-09T21:32:12.546Z,15.02
2024-05-09T21:34:40.155Z,14.96
2024-05-09T21:37:11.493Z,14.93
2024-05-09T21:39:40.031Z,14.91
2024-05-09T21:42:10.191Z,14.92
2024-05-09T21:44:37.384Z,14.93
2024-05-09T21:47:15.947Z,14.91
2024-05-09T21:49:43.362Z,14.87
2024-05-09T21:52:13.876Z,14.87
2024-05-09T21:54:41.279Z,14.88
2024-05-09T21:57:14.883Z,14.86
2024-05-09T21:59:42.200Z,14.84
2024-05-09T22:02:15.354Z,14.77
2024-05-09T22:04:42.834Z,14.75
2024-05-09T22:07:13.272Z,14.75
2024-05-09T22:09:45.487Z,14.74
2024-05-09T22:12:15.607Z,14.74
2024-05-09T22:14:43.162Z,14.68
2024-05-09T22:17:16.421Z,14.66
2024-05-09T22:19:45.562Z,14.60
2024-05-09T22:22:15.889Z,14.54
2024-05-09T22:24:43.749Z,14.48
2024-05-09T22:27:15.933Z,14.38
2024-05-09T22:29:43.135Z,14.37
2024-05-09T22:32:15.970Z,14.38
2024-05-09T22:34:43.813Z,14.42
2024-05-09T22:37:14.212Z,14.40
2024-05-09T22:39:42.603Z,14.39
2024-05-09T22:42:12.500Z,14.40
2024-05-09T22:44:40.043Z,14.40
2024-05-09T22:47:10.003Z,14.36
2024-05-09T22:49:43.436Z,14.35
2024-05-09T22:52:10.893Z,14.35
2024-05-09T22:54:41.148Z,14.35
2024-05-09T22:57:10.557Z,14.35
2024-05-09T22:59:40.909Z,14.37
2024-05-09T23:02:09.325Z,14.39
2024-05-09T23:04:43.639Z,14.42
2024-05-09T23:07:12.592Z,14.44
2024-05-09T23:09:45.151Z,14.44
2024-05-09T23:12:17.753Z,14.48
2024-05-09T23:14:47.706Z,14.52
2024-05-09T23:17:15.315Z,14.54
2024-05-09T23:19:48.169Z,14.57
2024-05-09T23:22:16.089Z,14.61
2024-05-09T23:24:46.168Z,14.63
2024-05-09T23:27:13.534Z,14.65
2024-05-09T23:29:44.096Z,14.62
2024-05-09T23:32:11.903Z,14.66
2024-05-09T23:34:42.259Z,14.67
2024-05-09T23:37:12.280Z,14.64
2024-05-09T23:39:44.977Z,14.62
2024-05-09T23:42:15.343Z,14.58
2024-05-09T23:44:45.333Z,14.60
2024-05-09T23:47:12.644Z,14.61
2024-05-09T23:49:43.196Z,14.62
2024-05-09T23:52:13.845Z,14.61
2024-05-09T23:54:44.142Z,14.61
2024-05-09T23:57:11.632Z,14.60
2024-05-09T23:59:41.986Z,14.61
